Time;durP1;ratioP1;P1;durP2;ratioP2;P2;SDS_P1;SDS_P2;PMS_P1;PMS_P2;Temp;Humidity;BMP_temperature;BMP_pressure;BME280_temperature;BME280_humidity;BME280_pressure;Samples;Min_cycle;Max_cycle;Signal;HPM_P1;HPM_P2
2023/01/18 00:00:09;;;;;;;19.10;9.60;;;;;;;-145.18;100.00;46703.38;6182367;23;20259;-66
2023/01/18 00:02:34;;;;;;;18.23;10.25;;;;;;;-145.18;100.00;46713.13;6181042;23;20319;-66
2023/01/18 00:05:00;;;;;;;24.77;9.77;;;;;;;-145.18;100.00;46709.22;6182422;23;20012;-67
2023/01/18 00:07:25;;;;;;;20.60;10.37;;;;;;;-145.18;100.00;46709.22;6181970;23;20024;-67
2023/01/18 00:09:51;;;;;;;20.33;9.63;;;;;;;-145.18;100.00;46719.00;6182003;23;20379;-67
2023/01/18 00:12:17;;;;;;;15.98;9.68;;;;;;;-145.18;100.00;46724.84;6182035;23;20030;-67
2023/01/18 00:14:43;;;;;;;20.00;9.03;;;;;;;-145.18;100.00;46713.13;6181316;23;20059;-67
2023/01/18 00:17:08;;;;;;;20.67;9.03;;;;;;;-145.18;100.00;46707.28;6182280;23;20051;-68
2023/01/18 00:19:34;;;;;;;17.47;9.50;;;;;;;-145.18;100.00;46705.31;6181886;23;20084;-68
2023/01/18 00:22:00;;;;;;;17.13;9.02;;;;;;;-145.18;100.00;46709.22;6182516;23;20012;-68
2023/01/18 00:24:26;;;;;;;15.23;8.93;;;;;;;-145.18;100.00;46720.94;6181944;23;20001;-68
2023/01/18 00:26:52;;;;;;;18.67;9.88;;;;;;;-145.18;100.00;46719.00;6181800;23;20517;-68
2023/01/18 00:29:17;;;;;;;19.37;9.67;;;;;;;-145.18;100.00;46728.75;6182158;23;20461;-68
2023/01/18 00:31:42;;;;;;;19.63;9.00;;;;;;;-145.18;100.00;46719.00;6155460;23;20085;-68
2023/01/18 00:34:08;;;;;;;19.60;10.23;;;;;;;-145.18;100.00;46722.91;6182152;23;20009;-68
2023/01/18 00:36:33;;;;;;;18.70;10.13;;;;;;;-145.18;100.00;46732.66;6181927;23;20013;-68
2023/01/18 00:38:59;;;;;;;18.77;9.57;;;;;;;-145.18;100.00;46726.81;6181852;23;20013;-68
2023/01/18 00:41:25;;;;;;;21.00;9.23;;;;;;;-145.18;100.00;46726.81;6182073;23;20009;-68
2023/01/18 00:43:51;;;;;;;18.40;8.60;;;;;;;-145.18;100.00;46738.53;6181563;23;20644;-68
2023/01/18 00:46:19;;;;;;;17.20;9.43;;;;;;;-145.18;100.00;46732.66;6181859;23;20016;-67
2023/01/18 00:48:44;;;;;;;20.88;10.10;;;;;;;-145.18;100.00;46736.56;6181467;23;20009;-67
2023/01/18 00:51:13;;;;;;;16.50;10.07;;;;;;;-145.18;100.00;46736.56;6181882;23;20019;-67
2023/01/18 00:53:39;;;;;;;14.60;8.32;;;;;;;-145.18;100.00;46734.63;6181205;23;20005;-67
2023/01/18 00:56:10;;;;;;;20.13;9.85;;;;;;;-145.18;100.00;46734.63;6181997;23;20013;-67
2023/01/18 00:58:36;;;;;;;16.98;8.80;;;;;;;-145.18;100.00;46738.53;6181766;23;20399;-67
2023/01/18 01:01:02;;;;;;;16.10;9.20;;;;;;;-145.18;100.00;46734.63;6182246;23;20001;-67
2023/01/18 01:03:27;;;;;;;19.40;9.40;;;;;;;-145.18;100.00;46732.66;6181531;23;20012;-67
2023/01/18 01:08:37;;;;;;;19.00;9.35;;;;;;;-145.18;100.00;46734.63;6181407;23;20055;-67
2023/01/18 01:11:09;;;;;;;18.20;10.10;;;;;;;-145.18;100.00;46738.53;6181820;23;20693;-67
2023/01/18 01:27:16;;;;;;;18.08;10.07;;;;;;;-145.18;100.00;46742.44;6183653;23;20067;-67
2023/01/18 01:29:42;;;;;;;13.97;9.07;;;;;;;-145.18;100.00;46728.75;6156831;23;20009;-67
2023/01/18 01:32:08;;;;;;;16.30;9.80;;;;;;;-145.18;100.00;46738.53;6183438;23;20100;-66
2023/01/18 01:34:33;;;;;;;19.07;9.73;;;;;;;-145.18;100.00;46734.63;6183354;23;20415;-67
2023/01/18 01:36:59;;;;;;;21.10;10.00;;;;;;;-145.18;100.00;46734.63;6183983;23;20020;-67
2023/01/18 01:39:24;;;;;;;15.70;8.77;;;;;;;-145.18;100.00;46736.56;6183486;23;20040;-67
2023/01/18 01:41:50;;;;;;;16.50;9.47;;;;;;;-145.18;100.00;46736.56;6183020;23;20005;-67
2023/01/18 01:44:18;;;;;;;16.73;9.33;;;;;;;-145.18;100.00;46736.56;6183549;23;20036;-67
2023/01/18 01:46:52;;;;;;;15.98;9.45;;;;;;;-145.18;100.00;46740.47;6183300;23;20016;-67
2023/01/18 01:49:32;;;;;;;18.00;9.00;;;;;;;-145.18;100.00;46738.53;6183559;23;20024;-67
2023/01/18 01:52:04;;;;;;;17.00;9.40;;;;;;;-145.18;100.00;46736.56;6183751;23;20415;-67
2023/01/18 01:54:35;;;;;;;21.20;10.20;;;;;;;-145.18;100.00;46738.53;6183053;23;20035;-67
2023/01/18 01:57:14;;;;;;;20.42;9.85;;;;;;;-145.18;100.00;46736.56;6183555;23;20005;-67
2023/01/18 01:59:45;;;;;;;24.15;9.98;;;;;;;-145.18;100.00;46738.53;6183243;23;20024;-67
2023/01/18 02:02:11;;;;;;;17.52;10.02;;;;;;;-145.18;100.00;46734.63;6156670;23;20075;-67
2023/01/18 02:04:42;;;;;;;17.33;9.40;;;;;;;-145.18;100.00;46732.66;6183091;23;20005;-67
2023/01/18 02:07:09;;;;;;;17.77;9.73;;;;;;;-145.18;100.00;46732.66;6183036;23;20016;-67
2023/01/18 02:09:34;;;;;;;24.83;10.35;;;;;;;-145.18;100.00;46734.63;6182906;23;20017;-67
2023/01/18 02:12:01;;;;;;;25.83;12.13;;;;;;;-145.18;100.00;46736.56;6183212;23;20148;-67
2023/01/18 02:14:28;;;;;;;18.48;9.82;;;;;;;-145.18;100.00;46734.63;6183195;23;20020;-67
2023/01/18 02:17:18;;;;;;;18.60;10.20;;;;;;;-145.18;100.00;46732.66;6182998;23;20009;-67
2023/01/18 02:20:18;;;;;;;15.80;9.02;;;;;;;-145.18;100.00;46732.66;6182966;23;20011;-67
2023/01/18 02:22:46;;;;;;;20.55;10.00;;;;;;;-145.18;100.00;46738.53;6182774;23;20025;-67
2023/01/18 02:25:50;;;;;;;19.17;9.55;;;;;;;-145.18;100.00;46732.66;6183192;23;20005;-67
2023/01/18 02:28:25;;;;;;;18.95;10.15;;;;;;;-145.18;100.00;46738.53;6153697;23;20009;-67
2023/01/18 02:30:55;;;;;;;21.67;10.30;;;;;;;-145.18;100.00;46738.53;6183185;23;20439;-67
2023/01/18 02:33:31;;;;;;;15.88;9.00;;;;;;;-145.18;100.00;46736.56;6182671;23;20100;-67
2023/01/18 02:36:01;;;;;;;19.60;9.57;;;;;;;-145.18;100.00;46738.53;6182890;23;20342;-67
2023/01/18 02:38:43;;;;;;;17.10;9.25;;;;;;;-145.18;100.00;46738.53;6183210;23;20036;-67
2023/01/18 02:41:18;;;;;;;17.30;10.23;;;;;;;-145.18;100.00;46736.56;6183320;23;20028;-66
2023/01/18 02:46:34;;;;;;;19.95;9.43;;;;;;;-145.18;100.00;46734.63;6183062;23;20024;-66
2023/01/18 02:49:04;;;;;;;20.48;10.35;;;;;;;-145.18;100.00;46740.47;6183302;23;20028;-66
2023/01/18 02:51:30;;;;;;;17.17;9.63;;;;;;;-145.18;100.00;46728.75;6183257;23;20041;-67
2023/01/18 02:53:56;;;;;;;21.23;10.23;;;;;;;-145.18;100.00;46734.63;6182368;23;20012;-67
2023/01/18 02:56:32;;;;;;;21.20;9.98;;;;;;;-145.18;100.00;46734.63;6183048;23;20013;-67
2023/01/18 02:59:00;;;;;;;20.73;10.35;;;;;;;-145.18;100.00;46726.81;6182557;23;20429;-67
2023/01/18 03:04:04;;;;;;;20.80;11.20;;;;;;;-145.18;100.00;46736.56;6150043;23;20017;-65
2023/01/18 03:06:30;;;;;;;22.77;10.90;;;;;;;-145.18;100.00;46732.66;6153108;23;20060;-65
2023/01/18 03:08:58;;;;;;;21.60;11.30;;;;;;;-145.18;100.00;46732.66;6152884;23;20014;-65
2023/01/18 03:11:55;;;;;;;21.92;11.45;;;;;;;-145.18;100.00;46728.75;6153493;23;20010;-65
2023/01/18 03:15:04;;;;;;;22.35;10.35;;;;;;;-145.18;100.00;46734.63;6147361;23;20012;-65
2023/01/18 03:17:42;;;;;;;19.15;10.98;;;;;;;-145.18;100.00;46734.63;6138327;23;20013;-65
2023/01/18 03:20:13;;;;;;;23.35;11.68;;;;;;;-145.18;100.00;46734.63;6153506;23;20052;-65
2023/01/18 03:25:45;;;;;;;18.02;9.90;;;;;;;-145.18;100.00;46732.66;6153049;23;20044;-65
2023/01/18 03:34:20;;;;;;;21.38;11.40;;;;;;;-145.18;100.00;46734.63;6152761;23;20072;-65
2023/01/18 03:36:47;;;;;;;24.33;12.15;;;;;;;-145.18;100.00;46736.56;6152853;23;20006;-65
2023/01/18 03:39:27;;;;;;;20.88;11.38;;;;;;;-145.18;100.00;46732.66;6153074;23;20060;-65
2023/01/18 03:41:58;;;;;;;20.40;11.35;;;;;;;-145.18;100.00;46734.63;6152506;23;20024;-65
2023/01/18 03:44:49;;;;;;;19.67;10.25;;;;;;;-145.18;100.00;46728.75;6152975;23;20009;-65
2023/01/18 03:47:14;;;;;;;20.63;10.77;;;;;;;-145.18;100.00;46726.81;6152475;23;20014;-65
2023/01/18 03:49:40;;;;;;;20.50;11.03;;;;;;;-145.18;100.00;46724.84;6152843;23;20015;-65
2023/01/18 03:52:11;;;;;;;17.40;9.83;;;;;;;-145.18;100.00;46734.63;6152878;23;20048;-65
2023/01/18 03:55:15;;;;;;;20.05;10.32;;;;;;;-145.18;100.00;46732.66;6153069;23;20442;-65
2023/01/18 03:57:54;;;;;;;24.42;10.75;;;;;;;-145.18;100.00;46736.56;6152577;23;20203;-64
2023/01/18 04:00:20;;;;;;;17.10;11.02;;;;;;;-145.18;100.00;46728.75;6153109;23;20037;-65
2023/01/18 04:02:47;;;;;;;19.00;10.60;;;;;;;-145.18;100.00;46734.63;6152325;23;20402;-65
2023/01/18 04:05:13;;;;;;;18.05;10.85;;;;;;;-145.18;100.00;46734.63;6152653;23;20033;-65
2023/01/18 04:07:39;;;;;;;18.23;10.77;;;;;;;-145.18;100.00;46734.63;6152144;23;20459;-65
2023/01/18 04:10:04;;;;;;;19.90;9.73;;;;;;;-145.18;100.00;46724.84;6153151;23;20169;-65
2023/01/18 04:12:30;;;;;;;20.60;10.90;;;;;;;-145.18;100.00;46734.63;6152673;23;20016;-65
2023/01/18 04:14:56;;;;;;;19.87;10.67;;;;;;;-145.18;100.00;46734.63;6152639;23;20435;-65
2023/01/18 04:17:21;;;;;;;21.77;10.37;;;;;;;-145.18;100.00;46726.81;6152403;23;20037;-65
2023/01/18 04:19:46;;;;;;;20.93;10.40;;;;;;;-145.18;100.00;46728.75;6152704;23;20006;-65
2023/01/18 04:22:12;;;;;;;20.63;10.40;;;;;;;-145.18;100.00;46738.53;6152586;23;20489;-65
2023/01/18 04:24:38;;;;;;;21.17;9.60;;;;;;;-145.18;100.00;46734.63;6153030;23;20017;-65
2023/01/18 04:27:03;;;;;;;19.17;10.40;;;;;;;-145.18;100.00;46732.66;6152255;23;20017;-65
2023/01/18 04:29:29;;;;;;;17.87;10.10;;;;;;;-145.18;100.00;46728.75;6152946;23;20390;-65
2023/01/18 04:31:55;;;;;;;18.57;9.50;;;;;;;-145.18;100.00;46734.63;6152394;23;20001;-65
2023/01/18 04:34:23;;;;;;;21.60;9.93;;;;;;;-145.18;100.00;46736.56;6153235;23;20009;-65
2023/01/18 04:36:49;;;;;;;19.40;9.25;;;;;;;-145.18;100.00;46728.75;6152774;23;20012;-65
2023/01/18 04:39:14;;;;;;;16.77;9.52;;;;;;;-145.18;100.00;46734.63;6153137;23;20331;-65
2023/01/18 04:41:40;;;;;;;16.40;9.17;;;;;;;-145.18;100.00;46728.75;6152812;23;20005;-65
2023/01/18 04:44:05;;;;;;;18.23;9.37;;;;;;;-145.18;100.00;46734.63;6152692;23;20008;-65
2023/01/18 04:46:31;;;;;;;17.83;9.00;;;;;;;-145.18;100.00;46728.75;6153022;23;20080;-65
2023/01/18 04:48:56;;;;;;;16.63;9.17;;;;;;;-145.18;100.00;46734.63;6152315;23;20027;-65
2023/01/18 04:51:22;;;;;;;18.03;9.00;;;;;;;-145.18;100.00;46734.63;6153190;23;20316;-65
2023/01/18 04:53:49;;;;;;;18.50;9.05;;;;;;;-145.18;100.00;46728.75;6152449;23;20476;-65
2023/01/18 04:56:15;;;;;;;22.58;9.07;;;;;;;-145.18;100.00;46726.81;6152711;23;20092;-65
2023/01/18 04:58:41;;;;;;;16.85;9.15;;;;;;;-145.18;100.00;46732.66;6152608;23;20386;-65
2023/01/18 05:01:10;;;;;;;14.65;8.15;;;;;;;-145.18;100.00;46736.56;6153200;23;20013;-65
2023/01/18 05:03:37;;;;;;;17.90;8.25;;;;;;;-145.18;100.00;46736.56;6151132;23;20020;-65
2023/01/18 05:06:07;;;;;;;22.65;8.65;;;;;;;-145.18;100.00;46728.75;6151369;23;20006;-65
2023/01/18 05:08:33;;;;;;;19.42;9.18;;;;;;;-145.18;100.00;46734.63;6151742;23;20005;-65
2023/01/18 05:11:01;;;;;;;18.37;9.43;;;;;;;-145.18;100.00;46732.66;6151556;23;20427;-65
2023/01/18 05:13:26;;;;;;;15.85;8.60;;;;;;;-145.18;100.00;46728.75;6151221;23;20255;-65
2023/01/18 05:15:52;;;;;;;15.03;8.87;;;;;;;-145.18;100.00;46732.66;6151307;23;20343;-65
2023/01/18 05:18:17;;;;;;;18.70;10.07;;;;;;;-145.18;100.00;46728.75;6150907;23;20139;-65
2023/01/18 05:20:42;;;;;;;13.87;8.90;;;;;;;-145.18;100.00;46732.66;6151207;23;20061;-65
2023/01/18 05:23:09;;;;;;;15.30;8.40;;;;;;;-145.18;100.00;46734.63;6149830;23;20006;-65
2023/01/18 05:25:35;;;;;;;18.42;8.85;;;;;;;-145.18;100.00;46738.53;6151122;23;20089;-65
2023/01/18 05:28:00;;;;;;;26.10;9.27;;;;;;;-145.18;100.00;46734.63;6151102;23;20033;-65
2023/01/18 05:30:25;;;;;;;19.37;9.40;;;;;;;-145.18;100.00;46740.47;6151298;23;20010;-65
2023/01/18 05:32:51;;;;;;;16.73;8.67;;;;;;;-145.18;100.00;46736.56;6150831;23;20017;-65
2023/01/18 05:35:16;;;;;;;22.67;8.93;;;;;;;-145.18;100.00;46728.75;6151319;23;20013;-65
2023/01/18 05:37:41;;;;;;;14.00;8.03;;;;;;;-145.18;100.00;46732.66;6150979;23;20013;-65
2023/01/18 05:40:08;;;;;;;18.43;8.40;;;;;;;-145.18;100.00;46728.75;6151145;23;20005;-65
2023/01/18 05:42:33;;;;;;;16.85;8.98;;;;;;;-145.18;100.00;46726.81;6150501;23;20016;-65
2023/01/18 05:44:58;;;;;;;19.97;8.80;;;;;;;-145.18;100.00;46726.81;6151054;23;20092;-65
2023/01/18 05:47:24;;;;;;;17.00;8.47;;;;;;;-145.18;100.00;46724.84;6151103;23;20024;-65
2023/01/18 05:49:49;;;;;;;17.30;8.40;;;;;;;-145.18;100.00;46726.81;6149811;23;20005;-65
2023/01/18 05:52:15;;;;;;;19.93;8.70;;;;;;;-145.18;100.00;46724.84;6150689;23;20009;-65
2023/01/18 05:54:41;;;;;;;13.50;7.75;;;;;;;-145.18;100.00;46719.00;6150408;23;20020;-65
2023/01/18 05:57:06;;;;;;;15.00;8.00;;;;;;;-145.18;100.00;46719.00;6151224;23;20401;-65
2023/01/18 05:59:32;;;;;;;17.10;9.10;;;;;;;-145.18;100.00;46722.91;6151253;23;20021;-65
2023/01/18 06:01:57;;;;;;;15.30;8.53;;;;;;;-145.18;100.00;46724.84;6103869;23;1103071;-65
2023/01/18 06:04:22;;;;;;;18.13;8.70;;;;;;;-145.18;100.00;46719.00;6152249;23;20025;-65
2023/01/18 06:06:48;;;;;;;15.73;8.33;;;;;;;-145.18;100.00;46720.94;6152436;23;20052;-65
2023/01/18 06:09:13;;;;;;;16.47;9.03;;;;;;;-145.18;100.00;46720.94;6153529;23;20017;-65
2023/01/18 06:11:38;;;;;;;16.87;8.60;;;;;;;-145.18;100.00;46722.91;6153949;23;20006;-66
2023/01/18 06:14:04;;;;;;;18.20;8.70;;;;;;;-145.18;100.00;46722.91;6153358;23;20080;-65
2023/01/18 06:16:29;;;;;;;22.63;9.57;;;;;;;-145.18;100.00;46722.91;6154020;23;20009;-65
2023/01/18 06:18:54;;;;;;;17.47;8.60;;;;;;;-145.18;100.00;46720.94;6153823;23;20016;-65
2023/01/18 06:21:20;;;;;;;15.67;8.13;;;;;;;-145.18;100.00;46722.91;6153836;23;20006;-65
2023/01/18 06:23:45;;;;;;;16.20;9.70;;;;;;;-145.18;100.00;46722.91;6153698;23;20340;-65
2023/01/18 06:26:11;;;;;;;18.63;9.07;;;;;;;-145.18;100.00;46720.94;6153675;23;20032;-65
2023/01/18 06:28:36;;;;;;;16.50;9.27;;;;;;;-145.18;100.00;46720.94;6153568;23;20037;-64
2023/01/18 06:31:03;;;;;;;14.50;8.40;;;;;;;-145.18;100.00;46724.84;6153861;23;20323;-65
2023/01/18 06:33:29;;;;;;;16.38;8.73;;;;;;;-145.18;100.00;46711.19;6153358;23;20472;-64
2023/01/18 06:35:54;;;;;;;17.23;9.37;;;;;;;-145.18;100.00;46709.22;6153587;23;20009;-65
2023/01/18 06:38:19;;;;;;;17.57;8.80;;;;;;;-145.18;100.00;46715.09;6153674;23;20009;-65
2023/01/18 06:40:45;;;;;;;22.87;9.30;;;;;;;-145.18;100.00;46707.28;6153752;23;20013;-64
2023/01/18 06:43:12;;;;;;;20.73;8.97;;;;;;;-145.18;100.00;46711.19;6153463;23;20064;-65
2023/01/18 06:45:38;;;;;;;16.67;9.45;;;;;;;-145.18;100.00;46703.38;6153938;23;20014;-64
2023/01/18 06:48:03;;;;;;;17.77;9.63;;;;;;;-145.18;100.00;46709.22;6153167;23;20327;-65
2023/01/18 06:50:29;;;;;;;18.27;9.57;;;;;;;-145.18;100.00;46705.31;6153902;23;20425;-65
2023/01/18 06:52:54;;;;;;;20.13;10.10;;;;;;;-145.18;100.00;46709.22;6153148;23;20016;-65
2023/01/18 06:55:20;;;;;;;17.53;9.53;;;;;;;-145.18;100.00;46707.28;6152211;23;20009;-65
2023/01/18 06:57:46;;;;;;;18.43;9.60;;;;;;;-145.18;100.00;46705.31;6153258;23;20021;-64
2023/01/18 07:00:13;;;;;;;15.27;9.15;;;;;;;-145.18;100.00;46705.31;6153793;23;20093;-65
2023/01/18 07:02:38;;;;;;;17.30;10.20;;;;;;;-145.18;100.00;46705.31;6152918;23;20013;-65
2023/01/18 07:05:04;;;;;;;21.60;9.03;;;;;;;-145.18;100.00;46705.31;6153168;23;20013;-65
2023/01/18 07:07:29;;;;;;;18.93;9.20;;;;;;;-145.18;100.00;46707.28;6153289;23;20010;-65
2023/01/18 07:09:55;;;;;;;24.93;10.00;;;;;;;-145.18;100.00;46703.38;6153349;23;20010;-65
2023/01/18 07:12:20;;;;;;;21.23;9.60;;;;;;;-145.18;100.00;46699.47;6153188;23;20010;-65
2023/01/18 07:14:46;;;;;;;18.27;9.37;;;;;;;-145.18;100.00;46703.38;6152860;23;20140;-64
2023/01/18 07:17:12;;;;;;;25.23;9.60;;;;;;;-145.18;100.00;46705.31;6153583;23;20009;-64
2023/01/18 07:19:37;;;;;;;19.58;9.65;;;;;;;-145.18;100.00;46703.38;6152351;23;20065;-65
2023/01/18 07:22:03;;;;;;;19.87;9.07;;;;;;;-145.18;100.00;46707.28;6153091;23;20040;-65
2023/01/18 07:24:28;;;;;;;19.60;9.47;;;;;;;-145.18;100.00;46707.28;6153135;23;20009;-65
2023/01/18 07:26:54;;;;;;;23.37;9.73;;;;;;;-145.18;100.00;46705.31;6152951;23;20461;-65
2023/01/18 07:29:20;;;;;;;20.40;10.37;;;;;;;-145.18;100.00;46705.31;6153067;23;20016;-64
2023/01/18 07:31:46;;;;;;;19.73;9.48;;;;;;;-145.18;100.00;46701.41;6153176;23;20063;-64
2023/01/18 07:34:12;;;;;;;17.67;9.63;;;;;;;-145.18;100.00;46699.47;6151420;23;20439;-64
2023/01/18 07:36:38;;;;;;;18.10;9.65;;;;;;;-145.18;100.00;46701.41;6153414;23;20012;-64
2023/01/18 07:39:05;;;;;;;22.90;10.47;;;;;;;-145.18;100.00;46697.50;6152764;23;20009;-64
2023/01/18 07:41:31;;;;;;;18.73;9.65;;;;;;;-145.18;100.00;46693.59;6153617;23;20006;-64
2023/01/18 07:43:56;;;;;;;19.87;9.00;;;;;;;-145.18;100.00;46691.66;6152443;23;20042;-64
2023/01/18 07:46:24;;;;;;;20.53;9.87;;;;;;;-145.18;100.00;46687.75;6153322;23;20017;-64
2023/01/18 07:48:50;;;;;;;18.70;9.70;;;;;;;-145.18;100.00;46681.88;6152973;23;20001;-64
2023/01/18 07:51:16;;;;;;;17.00;9.80;;;;;;;-145.18;100.00;46672.13;6153295;23;20077;-64
2023/01/18 07:53:41;;;;;;;25.37;11.03;;;;;;;-145.18;100.00;46672.13;6152063;23;20029;-65
2023/01/18 07:56:11;;;;;;;20.77;10.77;;;;;;;-145.18;100.00;46674.06;6152680;23;20017;-64
2023/01/18 07:58:36;;;;;;;20.25;10.45;;;;;;;-145.18;100.00;46677.97;6152471;23;20457;-64
2023/01/18 08:01:04;;;;;;;20.90;11.57;;;;;;;-145.18;100.00;46666.25;6152035;23;20029;-64
2023/01/18 08:03:30;;;;;;;24.38;10.77;;;;;;;-145.18;100.00;46670.16;6150718;23;20013;-64
2023/01/18 08:05:58;;;;;;;20.67;11.60;;;;;;;-145.18;100.00;46676.03;6151836;23;20006;-64
2023/01/18 08:08:24;;;;;;;23.90;12.45;;;;;;;-145.18;100.00;46679.94;6152677;23;20016;-65
2023/01/18 08:10:54;;;;;;;22.77;11.50;;;;;;;-145.18;100.00;46676.03;6152279;23;20081;-64
2023/01/18 08:13:19;;;;;;;26.63;11.65;;;;;;;-145.18;100.00;46672.13;6152474;23;20037;-64
2023/01/18 08:15:44;;;;;;;22.13;11.50;;;;;;;-145.18;100.00;46662.34;6152594;23;20005;-64
2023/01/18 08:18:11;;;;;;;26.73;11.90;;;;;;;-145.18;100.00;46658.44;6152645;23;20010;-64
2023/01/18 08:20:37;;;;;;;29.45;11.85;;;;;;;-145.18;100.00;46644.78;6152896;23;20495;-64
2023/01/18 08:23:02;;;;;;;26.00;12.07;;;;;;;-145.18;100.00;46644.78;6152345;23;20032;-64
2023/01/18 08:25:30;;;;;;;24.77;12.67;;;;;;;-145.18;100.00;46644.78;6152379;23;20439;-64
2023/01/18 08:27:57;;;;;;;19.88;12.38;;;;;;;-145.18;100.00;46635.00;6152238;23;20041;-64
2023/01/18 08:30:26;;;;;;;21.80;12.13;;;;;;;-145.18;100.00;46635.00;6153141;23;20010;-64
2023/01/18 08:32:54;;;;;;;23.88;11.65;;;;;;;-145.18;100.00;46633.06;6152349;23;20006;-64
2023/01/18 08:35:19;;;;;;;23.08;12.45;;;;;;;-145.18;100.00;46629.13;6152698;23;20088;-64
2023/01/18 08:37:44;;;;;;;27.37;12.60;;;;;;;-145.18;100.00;46623.28;6151831;23;20048;-64
2023/01/18 08:40:10;;;;;;;27.97;13.13;;;;;;;-145.18;100.00;46627.19;6152994;23;20013;-64
2023/01/18 08:42:36;;;;;;;24.98;12.57;;;;;;;-145.18;100.00;46619.38;6152837;23;20503;-64
2023/01/18 08:45:01;;;;;;;28.40;14.20;;;;;;;-145.18;100.00;46613.50;6152050;23;20050;-64
2023/01/18 08:47:26;;;;;;;25.30;13.10;;;;;;;-145.18;100.00;46652.59;6152151;23;20445;-64
2023/01/18 08:49:52;;;;;;;23.70;13.17;;;;;;;-145.18;100.00;46609.59;6152234;23;20037;-64
2023/01/18 08:52:17;;;;;;;26.67;12.27;;;;;;;-145.18;100.00;46638.91;6152669;23;20423;-64
2023/01/18 08:54:43;;;;;;;26.63;12.90;;;;;;;-145.18;100.00;46640.88;6151952;23;20308;-63
2023/01/18 08:57:09;;;;;;;26.93;12.80;;;;;;;-145.18;100.00;46597.88;6152343;23;20092;-66
2023/01/18 08:59:35;;;;;;;25.50;12.90;;;;;;;-145.18;100.00;46595.94;6152312;23;20009;-66
2023/01/18 09:02:00;;;;;;;28.37;13.37;;;;;;;-145.18;100.00;46593.97;6151869;23;20017;-66
2023/01/18 09:04:28;;;;;;;26.50;14.10;;;;;;;-145.18;100.00;46590.06;6152481;23;20044;-66
2023/01/18 09:06:53;;;;;;;28.55;13.27;;;;;;;-145.18;100.00;46586.16;6152359;23;20439;-66
2023/01/18 09:09:19;;;;;;;25.73;13.63;;;;;;;-145.18;100.00;46588.13;6151916;23;20037;-66
2023/01/18 09:11:45;;;;;;;25.57;13.40;;;;;;;-145.18;100.00;46584.22;6150678;23;20168;-66
2023/01/18 09:14:10;;;;;;;23.77;13.13;;;;;;;-145.18;100.00;46588.13;6152204;23;20005;-66
2023/01/18 09:16:35;;;;;;;19.13;11.47;;;;;;;-145.18;100.00;46586.16;6152388;23;20400;-66
2023/01/18 09:19:05;;;;;;;21.07;12.43;;;;;;;-145.18;100.00;46590.06;6151526;23;20013;-66
2023/01/18 09:21:30;;;;;;;26.80;12.77;;;;;;;-145.18;100.00;46582.25;6152507;23;20503;-66
2023/01/18 09:23:58;;;;;;;22.13;12.53;;;;;;;-145.18;100.00;46586.16;6151850;23;20088;-66
2023/01/18 09:26:23;;;;;;;25.55;11.82;;;;;;;-145.18;100.00;46590.06;6151967;23;20484;-66
2023/01/18 09:28:51;;;;;;;22.30;12.70;;;;;;;-145.18;100.00;46592.03;6151189;23;20088;-66
2023/01/18 09:31:18;;;;;;;24.00;12.95;;;;;;;-145.18;100.00;46592.03;6152265;23;19997;-66
2023/01/18 09:33:44;;;;;;;27.30;12.13;;;;;;;-145.18;100.00;46592.03;6151801;23;20021;-66
2023/01/18 09:36:12;;;;;;;29.07;14.93;;;;;;;-145.18;100.00;46595.94;6152408;23;20396;-65
2023/01/18 09:38:39;;;;;;;31.58;13.85;;;;;;;-145.18;100.00;46597.88;6151937;23;20048;-66
2023/01/18 09:41:26;;;;;;;26.63;12.95;;;;;;;-145.18;100.00;46599.84;6152152;23;20005;-66
2023/01/18 09:43:55;;;;;;;25.42;13.00;;;;;;;-145.18;100.00;46611.56;6153441;23;20069;-66
2023/01/18 09:46:22;;;;;;;25.48;13.07;;;;;;;-145.18;100.00;46607.66;6153717;23;20032;-67
2023/01/18 09:48:59;;;;;;;23.73;12.98;;;;;;;-145.18;100.00;46611.56;6153705;23;20064;-66
2023/01/18 09:51:31;;;;;;;24.60;12.95;;;;;;;-145.18;100.00;46617.41;6152611;23;20655;-67
2023/01/18 09:54:02;;;;;;;24.77;12.82;;;;;;;-145.18;100.00;46615.47;6154127;23;20371;-68
2023/01/18 09:56:35;;;;;;;27.67;13.65;;;;;;;-145.18;100.00;46623.28;6153643;23;20056;-68
2023/01/18 09:59:36;;;;;;;20.90;13.07;;;;;;;-145.18;100.00;46633.06;6153648;23;20103;-65
2023/01/18 10:02:15;;;;;;;30.80;14.25;;;;;;;-145.18;100.00;46627.19;6153711;23;20021;-65
2023/01/18 10:04:44;;;;;;;27.30;13.52;;;;;;;-145.18;100.00;46625.22;6153690;23;20005;-65
2023/01/18 10:07:15;;;;;;;24.55;12.82;;;;;;;-145.18;100.00;46638.91;6153462;23;20005;-65
2023/01/18 10:09:53;;;;;;;27.27;14.07;;;;;;;-145.18;100.00;46631.09;6153549;23;20009;-66
2023/01/18 10:12:35;;;;;;;25.58;13.95;;;;;;;-145.18;100.00;46635.00;6153850;23;20009;-67
2023/01/18 10:15:12;;;;;;;21.30;12.63;;;;;;;-145.18;100.00;46638.91;6153526;23;20006;-67
2023/01/18 10:17:40;;;;;;;24.45;11.73;;;;;;;-145.18;100.00;46638.91;6153857;23;20064;-68
2023/01/18 10:20:32;;;;;;;21.30;11.35;;;;;;;-145.18;100.00;46635.00;6153554;23;20012;-68
2023/01/18 10:23:09;;;;;;;20.92;11.27;;;;;;;-145.18;100.00;46648.69;6153516;23;20012;-68
2023/01/18 10:25:54;;;;;;;18.88;10.85;;;;;;;-145.18;100.00;46656.50;6154200;23;20013;-68
2023/01/18 10:28:38;;;;;;;18.13;11.13;;;;;;;-145.18;100.00;46650.63;6153782;23;20006;-68
2023/01/18 10:31:20;;;;;;;24.38;11.43;;;;;;;-145.18;100.00;46666.25;6153730;23;20028;-67
2023/01/18 10:33:47;;;;;;;25.83;11.70;;;;;;;-145.18;100.00;46676.03;6153000;23;20009;-67
2023/01/18 10:36:17;;;;;;;21.70;11.93;;;;;;;-145.18;100.00;46681.88;6154262;23;20238;-67
2023/01/18 10:38:44;;;;;;;19.67;11.75;;;;;;;-145.18;100.00;46679.94;6153305;23;20001;-67
2023/01/18 10:41:24;;;;;;;26.40;12.25;;;;;;;-145.18;100.00;46683.84;6153576;23;20005;-67
2023/01/18 10:43:50;;;;;;;26.17;12.40;;;;;;;-145.18;100.00;46685.78;6152347;23;20423;-67
2023/01/18 10:46:18;;;;;;;25.10;11.70;;;;;;;-145.18;100.00;46703.38;6153563;23;20331;-67
2023/01/18 10:48:50;;;;;;;25.40;12.60;;;;;;;-145.18;100.00;46689.69;6153053;23;20431;-67
2023/01/18 10:51:29;;;;;;;24.83;12.15;;;;;;;-145.18;100.00;46709.22;6153740;23;20303;-67
2023/01/18 10:53:56;;;;;;;20.73;10.93;;;;;;;-145.18;100.00;46703.38;6152998;23;20009;-67
2023/01/18 10:56:24;;;;;;;23.83;10.93;;;;;;;-145.18;100.00;46707.28;6153473;23;20264;-67
2023/01/18 10:58:49;;;;;;;22.23;11.73;;;;;;;-145.18;100.00;46707.28;6153058;23;20234;-67
2023/01/18 11:01:50;;;;;;;23.17;12.27;;;;;;;-145.18;100.00;46707.28;6153507;23;20314;-67
2023/01/18 11:04:22;;;;;;;21.20;10.70;;;;;;;-145.18;100.00;46719.00;6153148;23;20016;-67
2023/01/18 11:06:50;;;;;;;16.90;10.83;;;;;;;-145.18;100.00;46728.75;6152922;23;20708;-67
2023/01/18 11:09:34;;;;;;;19.87;10.40;;;;;;;-145.18;100.00;46719.00;6153334;23;20223;-67
2023/01/18 11:12:40;;;;;;;19.70;10.97;;;;;;;-145.18;100.00;46713.13;6153184;23;20231;-67
2023/01/18 11:15:14;;;;;;;22.57;10.37;;;;;;;-145.18;100.00;46726.81;6152629;23;20220;-67
2023/01/18 11:17:42;;;;;;;17.63;10.07;;;;;;;-145.18;100.00;46726.81;6153284;23;20282;-67
2023/01/18 11:20:33;;;;;;;21.60;9.97;;;;;;;-145.18;100.00;46744.38;6153223;23;20704;-67
2023/01/18 11:23:02;;;;;;;18.87;9.40;;;;;;;-145.18;100.00;46734.63;6152593;23;20224;-67
2023/01/18 11:25:46;;;;;;;15.97;9.53;;;;;;;-145.18;100.00;46752.19;6127360;23;20228;-67
2023/01/18 11:28:38;;;;;;;21.73;9.70;;;;;;;-145.18;100.00;46742.44;6153202;23;20239;-67
2023/01/18 11:31:13;;;;;;;17.63;9.27;;;;;;;-145.18;100.00;46750.25;6152113;23;20262;-67
2023/01/18 11:33:54;;;;;;;16.50;8.53;;;;;;;-145.18;100.00;46791.28;6150981;23;20228;-67
2023/01/18 11:36:44;;;;;;;16.90;7.67;;;;;;;-145.18;100.00;46789.31;6153287;23;20541;-67